Nearby METAR Reports

 

NZAA - Auckland Intl Ar, New Zealand
Distance from station: SSE 87km
Updated: 16/08/2018 08:00
Few Clouds
Few Clouds
 Wind from WSW
Wind: WSW 22 km/h
Temperature: 13°C
Dew Point: 9°C
Humidity: 77%
Barometer: 1010 hPa
Clouds: Few Clouds
Visibility: 10 km
Cloud details: Few Clouds 945 m
2018/08/15 20:00 NZAA 152000Z AUTO 25012KT 9999 FEW031/// 13/09 Q1010 NOSIG
NZWN - Wellington Intl, New Zealand
Distance from station: S 561km
Updated: 16/08/2018 08:00
Clear
Clear
 Wind from N
Wind: N 39 km/h
Temperature: 11°C
Dew Point: 7°C
Humidity: 77%
Barometer: 1002 hPa
Clouds: Clear
Visibility: 10 km
2018/08/15 20:00 NZWN 152000Z AUTO 36021KT 9999 NCD 11/07 Q1002 NOSIG
 
NZCH - Christchurch Int, New Zealand
Distance from station: S 817km
Updated: 16/08/2018 08:00
Clear
Clear
 Wind from NNW
Wind: NNW 6 km/h
Temperature: 5°C
Dew Point: 5°C
Humidity: 100%
Barometer: 996 hPa
Clouds: Clear
Visibility: 10 km
2018/08/15 20:00 NZCH 152000Z AUTO 33003KT 9999 NCD 05/05 Q0996 NOSIG
YSNF - Norfolk Island A, Australia
Distance from station: NW 1015km
Updated: 16/08/2018 08:00
Mostly cloudy
Mostly cloudy
 Wind from WNW
Wind: WNW 9 km/h
Temperature: 14°C
Dew Point: 13°C
Humidity: 94%
Barometer: 1018 hPa
Clouds: Mostly cloudy
Visibility: 10 km
Cloud details: Mostly cloudy 1463 m
2018/08/15 20:00 YSNF 152000Z AUTO 29005KT 9999 // BKN048 14/13 Q1018